KELP/ELP METAR and TAF weather

Enter ICAO airport designator
Station Type Date Time Source
KELP METAR 2018/10/21 06:51 UTC NOAA

KELP 210651Z 14005KT 10SM FEW044 BKN090 BKN190 14/06 A3034 RMK AO2 SLP224 T01440061 402220144


Station Type Date Time Source
KELP Decoded METAR 2018/10/21 06:51 UTC NOAA

EL PASO INTERNATIONAL AIRPORT , TX, United States (KELP) 31-49N 106-23W 1197M
Oct 21, 2018 - 02:51 AM EDT / 2018.10.21 0651 UTC
Wind: from the SE (140 degrees) at 6 MPH (5 KT):0
Visibility: 10 mile(s):0
Sky conditions: mostly cloudy
Temperature: 57.9 F (14.4 C)
Dew Point: 43.0 F (6.1 C)
Relative Humidity: 57%
Pressure (altimeter): 30.34 in. Hg (1027 hPa)
ob: KELP 210651Z 14005KT 10SM FEW044 BKN090 BKN190 14/06 A3034 RMK AO2 SLP224 T01440061 402220144
cycle: 7

Station Type Date Time Source
KELP TAF 2018/10/21 06:30 UTC NOAA

TAF KELP 210528Z 2106/2206 11008KT P6SM FEW060 BKN070 BKN160
FM211600 09011KT P6SM OVC060
FM220300 11006KT P6SM FEW060 BKN100


Example: see airport list